sensor_id;sensor_type;location;lat;lon;timestamp;temperature;humidity
10245;DHT22;5167;52.164;10.530;2024-02-16T00:01:06;12.90;65.20
10245;DHT22;5167;52.164;10.530;2024-02-16T00:03:31;12.90;65.40
10245;DHT22;5167;52.164;10.530;2024-02-16T00:05:57;13.10;65.80
10245;DHT22;5167;52.164;10.530;2024-02-16T00:08:22;12.90;65.70
10245;DHT22;5167;52.164;10.530;2024-02-16T00:10:47;12.80;66.30
10245;DHT22;5167;52.164;10.530;2024-02-16T00:13:13;12.90;66.80
10245;DHT22;5167;52.164;10.530;2024-02-16T00:15:39;12.80;67.40
10245;DHT22;5167;52.164;10.530;2024-02-16T00:18:05;12.80;67.80
10245;DHT22;5167;52.164;10.530;2024-02-16T00:20:31;12.80;67.80
10245;DHT22;5167;52.164;10.530;2024-02-16T00:22:57;12.90;67.80
10245;DHT22;5167;52.164;10.530;2024-02-16T00:25:22;12.90;67.60
10245;DHT22;5167;52.164;10.530;2024-02-16T00:27:48;12.90;67.50
10245;DHT22;5167;52.164;10.530;2024-02-16T00:30:14;12.90;67.90
10245;DHT22;5167;52.164;10.530;2024-02-16T00:32:41;12.90;67.80
10245;DHT22;5167;52.164;10.530;2024-02-16T00:35:06;12.80;68.20
10245;DHT22;5167;52.164;10.530;2024-02-16T00:37:32;12.80;68.60
10245;DHT22;5167;52.164;10.530;2024-02-16T00:39:57;12.90;68.20
10245;DHT22;5167;52.164;10.530;2024-02-16T00:42:23;12.90;67.60
10245;DHT22;5167;52.164;10.530;2024-02-16T00:44:49;12.90;68.10
10245;DHT22;5167;52.164;10.530;2024-02-16T00:47:15;12.80;68.10
10245;DHT22;5167;52.164;10.530;2024-02-16T00:49:42;12.80;67.70
10245;DHT22;5167;52.164;10.530;2024-02-16T00:52:07;13.00;67.70
10245;DHT22;5167;52.164;10.530;2024-02-16T00:54:33;12.80;68.10
10245;DHT22;5167;52.164;10.530;2024-02-16T00:56:58;12.80;68.10
10245;DHT22;5167;52.164;10.530;2024-02-16T00:59:30;12.90;68.20
10245;DHT22;5167;52.164;10.530;2024-02-16T01:01:56;12.80;67.90
10245;DHT22;5167;52.164;10.530;2024-02-16T01:04:21;12.80;67.70
10245;DHT22;5167;52.164;10.530;2024-02-16T01:06:48;12.80;67.70
10245;DHT22;5167;52.164;10.530;2024-02-16T01:09:13;12.80;67.20
10245;DHT22;5167;52.164;10.530;2024-02-16T01:11:42;12.80;66.90
10245;DHT22;5167;52.164;10.530;2024-02-16T01:14:07;12.80;67.40
10245;DHT22;5167;52.164;10.530;2024-02-16T01:16:33;13.00;66.60
10245;DHT22;5167;52.164;10.530;2024-02-16T01:18:59;12.80;66.30
10245;DHT22;5167;52.164;10.530;2024-02-16T01:21:24;12.70;66.40
10245;DHT22;5167;52.164;10.530;2024-02-16T01:23:50;12.80;66.30
10245;DHT22;5167;52.164;10.530;2024-02-16T01:26:16;12.70;66.10
10245;DHT22;5167;52.164;10.530;2024-02-16T01:28:41;12.60;66.30
10245;DHT22;5167;52.164;10.530;2024-02-16T01:31:07;12.60;66.50
10245;DHT22;5167;52.164;10.530;2024-02-16T01:33:35;12.50;67.50
10245;DHT22;5167;52.164;10.530;2024-02-16T01:36:01;12.50;67.60
10245;DHT22;5167;52.164;10.530;2024-02-16T01:38:27;12.50;67.50
10245;DHT22;5167;52.164;10.530;2024-02-16T01:40:52;12.50;67.70
10245;DHT22;5167;52.164;10.530;2024-02-16T01:43:21;12.50;68.20
10245;DHT22;5167;52.164;10.530;2024-02-16T01:45:47;12.60;68.00
10245;DHT22;5167;52.164;10.530;2024-02-16T01:48:16;12.50;67.90
10245;DHT22;5167;52.164;10.530;2024-02-16T01:50:45;12.50;67.90
10245;DHT22;5167;52.164;10.530;2024-02-16T01:53:15;12.60;67.70
10245;DHT22;5167;52.164;10.530;2024-02-16T01:55:47;12.60;66.70
10245;DHT22;5167;52.164;10.530;2024-02-16T01:58:12;12.50;66.90
10245;DHT22;5167;52.164;10.530;2024-02-16T02:00:37;12.50;66.30
10245;DHT22;5167;52.164;10.530;2024-02-16T02:03:03;12.30;66.70
10245;DHT22;5167;52.164;10.530;2024-02-16T02:05:29;12.30;67.00
10245;DHT22;5167;52.164;10.530;2024-02-16T02:07:54;12.30;66.70
10245;DHT22;5167;52.164;10.530;2024-02-16T02:10:20;12.30;67.00
10245;DHT22;5167;52.164;10.530;2024-02-16T02:12:46;12.20;67.10
10245;DHT22;5167;52.164;10.530;2024-02-16T02:15:11;12.30;67.40
10245;DHT22;5167;52.164;10.530;2024-02-16T02:17:37;12.20;67.40
10245;DHT22;5167;52.164;10.530;2024-02-16T02:20:03;12.20;67.10
10245;DHT22;5167;52.164;10.530;2024-02-16T02:22:34;12.20;67.40
10245;DHT22;5167;52.164;10.530;2024-02-16T02:28:21;12.10;67.20
10245;DHT22;5167;52.164;10.530;2024-02-16T02:30:49;12.10;67.10
10245;DHT22;5167;52.164;10.530;2024-02-16T02:33:14;12.20;67.70
10245;DHT22;5167;52.164;10.530;2024-02-16T02:35:40;12.20;67.50
10245;DHT22;5167;52.164;10.530;2024-02-16T02:38:06;12.10;66.70
10245;DHT22;5167;52.164;10.530;2024-02-16T02:40:32;12.20;66.70
10245;DHT22;5167;52.164;10.530;2024-02-16T02:42:57;12.20;66.70
10245;DHT22;5167;52.164;10.530;2024-02-16T02:45:23;12.20;66.60
10245;DHT22;5167;52.164;10.530;2024-02-16T02:47:50;12.20;66.20
10245;DHT22;5167;52.164;10.530;2024-02-16T02:50:16;12.10;65.60
10245;DHT22;5167;52.164;10.530;2024-02-16T02:52:41;12.10;65.70
10245;DHT22;5167;52.164;10.530;2024-02-16T02:55:07;12.10;65.70
10245;DHT22;5167;52.164;10.530;2024-02-16T02:57:32;12.00;66.40
10245;DHT22;5167;52.164;10.530;2024-02-16T03:00:06;12.00;66.20
10245;DHT22;5167;52.164;10.530;2024-02-16T03:02:39;12.00;66.40
10245;DHT22;5167;52.164;10.530;2024-02-16T03:05:06;12.10;66.20
10245;DHT22;5167;52.164;10.530;2024-02-16T03:07:33;12.00;66.40
10245;DHT22;5167;52.164;10.530;2024-02-16T03:09:58;12.10;66.70
10245;DHT22;5167;52.164;10.530;2024-02-16T03:12:24;12.10;66.50
10245;DHT22;5167;52.164;10.530;2024-02-16T03:14:49;12.00;66.00
10245;DHT22;5167;52.164;10.530;2024-02-16T03:17:15;12.10;66.50
10245;DHT22;5167;52.164;10.530;2024-02-16T03:19:40;12.00;66.10
10245;DHT22;5167;52.164;10.530;2024-02-16T03:22:06;11.90;65.90
10245;DHT22;5167;52.164;10.530;2024-02-16T03:24:31;11.90;65.90
10245;DHT22;5167;52.164;10.530;2024-02-16T03:26:57;11.80;66.00
10245;DHT22;5167;52.164;10.530;2024-02-16T03:29:22;11.90;66.20
10245;DHT22;5167;52.164;10.530;2024-02-16T03:31:48;11.80;66.00
10245;DHT22;5167;52.164;10.530;2024-02-16T03:34:15;11.90;66.10
10245;DHT22;5167;52.164;10.530;2024-02-16T03:36:40;11.80;65.80
10245;DHT22;5167;52.164;10.530;2024-02-16T03:39:06;11.90;66.40
10245;DHT22;5167;52.164;10.530;2024-02-16T03:41:33;11.90;65.80
10245;DHT22;5167;52.164;10.530;2024-02-16T03:43:59;11.90;65.00
10245;DHT22;5167;52.164;10.530;2024-02-16T03:46:25;11.80;65.10
10245;DHT22;5167;52.164;10.530;2024-02-16T03:48:51;11.90;65.40
10245;DHT22;5167;52.164;10.530;2024-02-16T03:51:17;12.00;65.10
10245;DHT22;5167;52.164;10.530;2024-02-16T03:53:42;11.90;64.60
10245;DHT22;5167;52.164;10.530;2024-02-16T03:56:10;11.90;64.50
10245;DHT22;5167;52.164;10.530;2024-02-16T03:58:37;11.80;64.30
10245;DHT22;5167;52.164;10.530;2024-02-16T04:01:03;11.90;63.90
10245;DHT22;5167;52.164;10.530;2024-02-16T04:03:29;11.90;63.20
10245;DHT22;5167;52.164;10.530;2024-02-16T04:05:54;11.90;63.10
10245;DHT22;5167;52.164;10.530;2024-02-16T04:08:19;11.90;63.10
10245;DHT22;5167;52.164;10.530;2024-02-16T04:10:46;11.90;63.20
10245;DHT22;5167;52.164;10.530;2024-02-16T04:13:11;11.90;62.90
10245;DHT22;5167;52.164;10.530;2024-02-16T04:15:36;11.90;62.90
10245;DHT22;5167;52.164;10.530;2024-02-16T04:18:02;11.90;62.60
10245;DHT22;5167;52.164;10.530;2024-02-16T04:20:27;11.90;62.20
10245;DHT22;5167;52.164;10.530;2024-02-16T04:22:53;11.90;61.90
10245;DHT22;5167;52.164;10.530;2024-02-16T04:25:18;11.90;61.50
10245;DHT22;5167;52.164;10.530;2024-02-16T04:27:44;11.90;61.30
10245;DHT22;5167;52.164;10.530;2024-02-16T04:30:10;11.90;61.60
10245;DHT22;5167;52.164;10.530;2024-02-16T04:32:35;11.90;61.30
10245;DHT22;5167;52.164;10.530;2024-02-16T04:35:01;11.90;61.20
10245;DHT22;5167;52.164;10.530;2024-02-16T04:37:26;11.90;61.40
10245;DHT22;5167;52.164;10.530;2024-02-16T04:39:52;11.80;61.70
10245;DHT22;5167;52.164;10.530;2024-02-16T04:42:17;11.80;61.90
10245;DHT22;5167;52.164;10.530;2024-02-16T04:44:43;11.70;62.10
10245;DHT22;5167;52.164;10.530;2024-02-16T04:47:09;11.80;62.40
10245;DHT22;5167;52.164;10.530;2024-02-16T04:49:34;11.80;62.00
10245;DHT22;5167;52.164;10.530;2024-02-16T04:52:00;11.70;62.10
10245;DHT22;5167;52.164;10.530;2024-02-16T04:54:25;11.80;62.30
10245;DHT22;5167;52.164;10.530;2024-02-16T04:56:51;11.80;61.60
10245;DHT22;5167;52.164;10.530;2024-02-16T04:59:16;11.80;61.60
10245;DHT22;5167;52.164;10.530;2024-02-16T05:01:45;11.90;61.30
10245;DHT22;5167;52.164;10.530;2024-02-16T05:04:11;11.90;61.10
10245;DHT22;5167;52.164;10.530;2024-02-16T05:06:45;11.90;61.00
10245;DHT22;5167;52.164;10.530;2024-02-16T05:09:12;11.90;61.20
10245;DHT22;5167;52.164;10.530;2024-02-16T05:11:37;11.90;61.40
10245;DHT22;5167;52.164;10.530;2024-02-16T05:14:03;11.90;60.90
10245;DHT22;5167;52.164;10.530;2024-02-16T05:16:28;12.00;60.40
10245;DHT22;5167;52.164;10.530;2024-02-16T05:18:55;12.00;60.60
10245;DHT22;5167;52.164;10.530;2024-02-16T05:21:22;11.90;60.40
10245;DHT22;5167;52.164;10.530;2024-02-16T05:23:47;12.00;60.50
10245;DHT22;5167;52.164;10.530;2024-02-16T05:26:13;12.00;59.80
10245;DHT22;5167;52.164;10.530;2024-02-16T05:28:38;12.10;59.80
10245;DHT22;5167;52.164;10.530;2024-02-16T05:31:14;12.00;59.50
10245;DHT22;5167;52.164;10.530;2024-02-16T05:33:44;12.10;58.90
10245;DHT22;5167;52.164;10.530;2024-02-16T05:36:10;12.00;58.80
10245;DHT22;5167;52.164;10.530;2024-02-16T05:38:37;12.00;58.50
10245;DHT22;5167;52.164;10.530;2024-02-16T05:41:07;12.00;58.20
10245;DHT22;5167;52.164;10.530;2024-02-16T05:43:33;12.10;58.40
10245;DHT22;5167;52.164;10.530;2024-02-16T05:45:59;12.00;58.10
10245;DHT22;5167;52.164;10.530;2024-02-16T05:48:24;12.10;58.10
10245;DHT22;5167;52.164;10.530;2024-02-16T05:50:52;12.20;58.10
10245;DHT22;5167;52.164;10.530;2024-02-16T05:53:17;12.20;58.00
10245;DHT22;5167;52.164;10.530;2024-02-16T05:55:44;12.10;57.30
10245;DHT22;5167;52.164;10.530;2024-02-16T05:58:10;12.20;57.10
10245;DHT22;5167;52.164;10.530;2024-02-16T06:00:36;12.20;56.70
10245;DHT22;5167;52.164;10.530;2024-02-16T06:03:01;12.20;56.70
10245;DHT22;5167;52.164;10.530;2024-02-16T06:05:28;12.20;56.70
10245;DHT22;5167;52.164;10.530;2024-02-16T06:07:53;12.20;56.00
10245;DHT22;5167;52.164;10.530;2024-02-16T06:10:19;12.20;56.40
10245;DHT22;5167;52.164;10.530;2024-02-16T06:12:44;12.20;56.60
10245;DHT22;5167;52.164;10.530;2024-02-16T06:15:10;12.20;56.00
10245;DHT22;5167;52.164;10.530;2024-02-16T06:17:36;12.20;56.30
10245;DHT22;5167;52.164;10.530;2024-02-16T06:20:02;12.20;56.00
10245;DHT22;5167;52.164;10.530;2024-02-16T06:22:29;12.20;55.70
10245;DHT22;5167;52.164;10.530;2024-02-16T06:24:57;12.20;55.30
10245;DHT22;5167;52.164;10.530;2024-02-16T06:27:22;12.20;55.00
10245;DHT22;5167;52.164;10.530;2024-02-16T06:29:49;12.20;54.50
10245;DHT22;5167;52.164;10.530;2024-02-16T06:32:14;12.30;54.20
10245;DHT22;5167;52.164;10.530;2024-02-16T06:34:42;12.40;54.20
10245;DHT22;5167;52.164;10.530;2024-02-16T06:37:08;12.40;53.20
10245;DHT22;5167;52.164;10.530;2024-02-16T06:39:34;12.40;53.20
10245;DHT22;5167;52.164;10.530;2024-02-16T06:41:59;12.50;52.70
10245;DHT22;5167;52.164;10.530;2024-02-16T06:44:25;12.60;52.10
10245;DHT22;5167;52.164;10.530;2024-02-16T06:46:51;12.60;51.50
10245;DHT22;5167;52.164;10.530;2024-02-16T06:49:16;12.70;51.20
10245;DHT22;5167;52.164;10.530;2024-02-16T06:51:42;12.80;50.20
10245;DHT22;5167;52.164;10.530;2024-02-16T06:54:10;12.80;49.90
10245;DHT22;5167;52.164;10.530;2024-02-16T06:56:35;12.80;48.50
10245;DHT22;5167;52.164;10.530;2024-02-16T06:59:01;12.90;48.60
10245;DHT22;5167;52.164;10.530;2024-02-16T07:01:26;12.90;48.10
10245;DHT22;5167;52.164;10.530;2024-02-16T07:03:55;13.00;47.70
10245;DHT22;5167;52.164;10.530;2024-02-16T07:06:20;13.00;47.00
10245;DHT22;5167;52.164;10.530;2024-02-16T07:08:46;13.00;46.60
10245;DHT22;5167;52.164;10.530;2024-02-16T07:11:11;13.10;46.80
10245;DHT22;5167;52.164;10.530;2024-02-16T07:13:41;13.10;46.20
10245;DHT22;5167;52.164;10.530;2024-02-16T07:16:10;13.20;44.90
10245;DHT22;5167;52.164;10.530;2024-02-16T07:18:35;13.20;44.50
10245;DHT22;5167;52.164;10.530;2024-02-16T07:21:02;13.20;45.10
10245;DHT22;5167;52.164;10.530;2024-02-16T07:23:28;13.30;44.00
10245;DHT22;5167;52.164;10.530;2024-02-16T07:25:54;13.30;44.60
10245;DHT22;5167;52.164;10.530;2024-02-16T07:28:23;13.40;44.00
10245;DHT22;5167;52.164;10.530;2024-02-16T07:30:50;13.50;43.80
10245;DHT22;5167;52.164;10.530;2024-02-16T07:33:15;13.50;42.80
10245;DHT22;5167;52.164;10.530;2024-02-16T07:35:41;13.60;42.50
10245;DHT22;5167;52.164;10.530;2024-02-16T07:38:06;13.60;42.40
10245;DHT22;5167;52.164;10.530;2024-02-16T07:40:32;13.70;42.10
10245;DHT22;5167;52.164;10.530;2024-02-16T07:42:58;13.70;42.60
10245;DHT22;5167;52.164;10.530;2024-02-16T07:45:24;13.90;42.80
10245;DHT22;5167;52.164;10.530;2024-02-16T07:47:51;13.90;43.20
10245;DHT22;5167;52.164;10.530;2024-02-16T07:50:23;14.00;42.60
10245;DHT22;5167;52.164;10.530;2024-02-16T07:52:49;14.20;42.00
10245;DHT22;5167;52.164;10.530;2024-02-16T07:55:15;14.20;40.70
10245;DHT22;5167;52.164;10.530;2024-02-16T07:57:43;14.30;40.60
10245;DHT22;5167;52.164;10.530;2024-02-16T08:00:09;14.50;39.60
10245;DHT22;5167;52.164;10.530;2024-02-16T08:02:36;14.50;39.10
10245;DHT22;5167;52.164;10.530;2024-02-16T08:05:02;14.60;37.70
10245;DHT22;5167;52.164;10.530;2024-02-16T08:07:27;14.60;36.30
10245;DHT22;5167;52.164;10.530;2024-02-16T08:09:53;14.60;35.50
10245;DHT22;5167;52.164;10.530;2024-02-16T08:12:18;14.60;34.50
10245;DHT22;5167;52.164;10.530;2024-02-16T08:14:44;14.70;34.60
10245;DHT22;5167;52.164;10.530;2024-02-16T08:17:11;14.70;34.40
10245;DHT22;5167;52.164;10.530;2024-02-16T08:19:37;14.70;33.90
10245;DHT22;5167;52.164;10.530;2024-02-16T08:22:04;14.90;33.80
10245;DHT22;5167;52.164;10.530;2024-02-16T08:24:32;14.90;33.50
10245;DHT22;5167;52.164;10.530;2024-02-16T08:26:58;15.10;33.80
10245;DHT22;5167;52.164;10.530;2024-02-16T08:29:23;15.00;33.30
10245;DHT22;5167;52.164;10.530;2024-02-16T08:31:50;15.00;32.70
10245;DHT22;5167;52.164;10.530;2024-02-16T08:34:16;15.10;33.40
10245;DHT22;5167;52.164;10.530;2024-02-16T08:36:46;15.20;32.60
10245;DHT22;5167;52.164;10.530;2024-02-16T08:39:12;15.20;32.80
10245;DHT22;5167;52.164;10.530;2024-02-16T08:41:38;15.30;32.60
10245;DHT22;5167;52.164;10.530;2024-02-16T08:44:04;15.30;32.40
10245;DHT22;5167;52.164;10.530;2024-02-16T08:46:30;15.30;32.30
10245;DHT22;5167;52.164;10.530;2024-02-16T08:48:55;15.70;32.30
10245;DHT22;5167;52.164;10.530;2024-02-16T08:51:21;15.40;32.00
10245;DHT22;5167;52.164;10.530;2024-02-16T08:53:46;15.40;31.90
10245;DHT22;5167;52.164;10.530;2024-02-16T08:56:12;15.60;31.40
10245;DHT22;5167;52.164;10.530;2024-02-16T08:58:38;15.50;31.40
10245;DHT22;5167;52.164;10.530;2024-02-16T09:01:04;15.60;30.30
10245;DHT22;5167;52.164;10.530;2024-02-16T09:03:30;15.60;29.60
10245;DHT22;5167;52.164;10.530;2024-02-16T09:06:02;15.60;29.40
10245;DHT22;5167;52.164;10.530;2024-02-16T09:08:28;15.60;29.50
10245;DHT22;5167;52.164;10.530;2024-02-16T09:11:05;15.70;28.80
10245;DHT22;5167;52.164;10.530;2024-02-16T09:13:32;15.70;28.60
10245;DHT22;5167;52.164;10.530;2024-02-16T09:15:58;15.70;27.90
10245;DHT22;5167;52.164;10.530;2024-02-16T09:18:23;15.80;27.70
10245;DHT22;5167;52.164;10.530;2024-02-16T09:20:48;16.10;26.80
10245;DHT22;5167;52.164;10.530;2024-02-16T09:23:14;16.00;26.90
10245;DHT22;5167;52.164;10.530;2024-02-16T09:25:39;16.00;26.20
10245;DHT22;5167;52.164;10.530;2024-02-16T09:28:06;16.10;26.60
10245;DHT22;5167;52.164;10.530;2024-02-16T09:30:32;16.20;26.40
10245;DHT22;5167;52.164;10.530;2024-02-16T09:32:58;16.30;26.30
10245;DHT22;5167;52.164;10.530;2024-02-16T09:35:23;16.40;26.50
10245;DHT22;5167;52.164;10.530;2024-02-16T09:37:49;16.40;26.40
10245;DHT22;5167;52.164;10.530;2024-02-16T09:40:14;16.40;25.80
10245;DHT22;5167;52.164;10.530;2024-02-16T09:42:40;16.50;26.40
10245;DHT22;5167;52.164;10.530;2024-02-16T09:45:07;16.60;26.40
10245;DHT22;5167;52.164;10.530;2024-02-16T09:47:33;16.60;26.40
10245;DHT22;5167;52.164;10.530;2024-02-16T09:50:00;16.60;26.60
10245;DHT22;5167;52.164;10.530;2024-02-16T09:52:26;16.60;26.90
10245;DHT22;5167;52.164;10.530;2024-02-16T09:54:51;16.70;27.50
10245;DHT22;5167;52.164;10.530;2024-02-16T09:57:17;16.70;27.70
10245;DHT22;5167;52.164;10.530;2024-02-16T09:59:43;16.70;27.40
10245;DHT22;5167;52.164;10.530;2024-02-16T10:02:09;16.80;28.40
10245;DHT22;5167;52.164;10.530;2024-02-16T10:04:34;16.80;28.60
10245;DHT22;5167;52.164;10.530;2024-02-16T10:07:00;16.80;28.50
10245;DHT22;5167;52.164;10.530;2024-02-16T10:09:29;17.00;28.30
10245;DHT22;5167;52.164;10.530;2024-02-16T10:11:55;16.80;25.70
10245;DHT22;5167;52.164;10.530;2024-02-16T10:14:20;16.90;24.90
10245;DHT22;5167;52.164;10.530;2024-02-16T10:16:47;16.80;22.90
10245;DHT22;5167;52.164;10.530;2024-02-16T10:19:13;16.90;22.60
10245;DHT22;5167;52.164;10.530;2024-02-16T10:21:40;16.90;21.60
10245;DHT22;5167;52.164;10.530;2024-02-16T10:24:07;17.10;20.10
10245;DHT22;5167;52.164;10.530;2024-02-16T10:26:34;17.00;19.70
10245;DHT22;5167;52.164;10.530;2024-02-16T10:29:04;17.20;18.50
10245;DHT22;5167;52.164;10.530;2024-02-16T10:31:31;17.20;17.20
10245;DHT22;5167;52.164;10.530;2024-02-16T10:33:59;17.20;17.60
10245;DHT22;5167;52.164;10.530;2024-02-16T10:36:25;17.30;16.80
10245;DHT22;5167;52.164;10.530;2024-02-16T10:38:54;17.40;15.70
10245;DHT22;5167;52.164;10.530;2024-02-16T10:41:26;17.40;15.40
10245;DHT22;5167;52.164;10.530;2024-02-16T10:43:53;17.60;15.20
10245;DHT22;5167;52.164;10.530;2024-02-16T10:46:19;17.70;14.20
10245;DHT22;5167;52.164;10.530;2024-02-16T10:48:45;17.80;14.30
10245;DHT22;5167;52.164;10.530;2024-02-16T10:51:11;17.80;13.30
10245;DHT22;5167;52.164;10.530;2024-02-16T10:53:38;18.00;12.60
10245;DHT22;5167;52.164;10.530;2024-02-16T10:56:07;18.10;11.40
10245;DHT22;5167;52.164;10.530;2024-02-16T10:58:32;18.10;11.10
10245;DHT22;5167;52.164;10.530;2024-02-16T11:01:08;18.20;10.60
10245;DHT22;5167;52.164;10.530;2024-02-16T11:03:34;18.10;9.90
10245;DHT22;5167;52.164;10.530;2024-02-16T11:06:14;18.20;9.30
10245;DHT22;5167;52.164;10.530;2024-02-16T11:08:40;18.40;8.80
10245;DHT22;5167;52.164;10.530;2024-02-16T11:11:05;18.20;8.70
10245;DHT22;5167;52.164;10.530;2024-02-16T11:13:33;18.10;8.70
10245;DHT22;5167;52.164;10.530;2024-02-16T11:16:01;18.00;7.90
10245;DHT22;5167;52.164;10.530;2024-02-16T11:18:28;18.10;8.90
10245;DHT22;5167;52.164;10.530;2024-02-16T11:20:54;17.90;9.30
10245;DHT22;5167;52.164;10.530;2024-02-16T11:23:26;17.90;9.90
10245;DHT22;5167;52.164;10.530;2024-02-16T11:25:53;17.80;9.00
10245;DHT22;5167;52.164;10.530;2024-02-16T11:28:19;17.90;9.20
10245;DHT22;5167;52.164;10.530;2024-02-16T11:30:44;17.90;9.40
10245;DHT22;5167;52.164;10.530;2024-02-16T11:33:13;17.80;9.30
10245;DHT22;5167;52.164;10.530;2024-02-16T11:35:39;17.90;9.30
10245;DHT22;5167;52.164;10.530;2024-02-16T11:38:05;17.80;8.60
10245;DHT22;5167;52.164;10.530;2024-02-16T11:40:30;17.80;9.60
10245;DHT22;5167;52.164;10.530;2024-02-16T11:42:59;17.90;9.70
10245;DHT22;5167;52.164;10.530;2024-02-16T11:45:25;17.70;9.50
10245;DHT22;5167;52.164;10.530;2024-02-16T11:48:02;17.80;10.80
10245;DHT22;5167;52.164;10.530;2024-02-16T11:50:27;17.80;11.20
10245;DHT22;5167;52.164;10.530;2024-02-16T11:52:53;17.70;10.60
10245;DHT22;5167;52.164;10.530;2024-02-16T11:55:19;17.60;10.20
10245;DHT22;5167;52.164;10.530;2024-02-16T11:57:46;17.50;10.80
10245;DHT22;5167;52.164;10.530;2024-02-16T12:00:16;17.50;11.90
10245;DHT22;5167;52.164;10.530;2024-02-16T12:02:41;17.50;10.60
10245;DHT22;5167;52.164;10.530;2024-02-16T12:05:07;17.50;11.40
10245;DHT22;5167;52.164;10.530;2024-02-16T12:07:33;17.60;10.80
10245;DHT22;5167;52.164;10.530;2024-02-16T12:10:03;17.50;11.10
10245;DHT22;5167;52.164;10.530;2024-02-16T12:12:31;17.40;11.00
10245;DHT22;5167;52.164;10.530;2024-02-16T12:14:56;17.40;11.40
10245;DHT22;5167;52.164;10.530;2024-02-16T12:17:23;17.40;11.60
10245;DHT22;5167;52.164;10.530;2024-02-16T12:19:50;17.50;12.20
10245;DHT22;5167;52.164;10.530;2024-02-16T12:22:20;17.50;12.30
10245;DHT22;5167;52.164;10.530;2024-02-16T12:24:47;17.50;12.50
10245;DHT22;5167;52.164;10.530;2024-02-16T12:27:13;17.50;12.00
10245;DHT22;5167;52.164;10.530;2024-02-16T12:29:39;17.60;11.10
10245;DHT22;5167;52.164;10.530;2024-02-16T12:32:05;17.70;12.10
10245;DHT22;5167;52.164;10.530;2024-02-16T12:34:31;17.50;12.10
10245;DHT22;5167;52.164;10.530;2024-02-16T12:36:57;17.40;12.30
10245;DHT22;5167;52.164;10.530;2024-02-16T12:39:22;17.60;12.60
10245;DHT22;5167;52.164;10.530;2024-02-16T12:41:48;17.50;13.10
10245;DHT22;5167;52.164;10.530;2024-02-16T12:44:14;17.50;13.50
10245;DHT22;5167;52.164;10.530;2024-02-16T12:46:40;17.50;13.40
10245;DHT22;5167;52.164;10.530;2024-02-16T12:49:07;17.60;13.60
10245;DHT22;5167;52.164;10.530;2024-02-16T12:51:32;17.60;13.10
10245;DHT22;5167;52.164;10.530;2024-02-16T12:53:58;17.60;13.40
10245;DHT22;5167;52.164;10.530;2024-02-16T12:56:25;17.50;13.50
10245;DHT22;5167;52.164;10.530;2024-02-16T12:58:51;17.50;14.00
10245;DHT22;5167;52.164;10.530;2024-02-16T13:01:16;17.50;14.30
10245;DHT22;5167;52.164;10.530;2024-02-16T13:03:46;17.50;13.50
10245;DHT22;5167;52.164;10.530;2024-02-16T13:06:12;17.50;13.40
10245;DHT22;5167;52.164;10.530;2024-02-16T13:08:38;17.60;13.40
10245;DHT22;5167;52.164;10.530;2024-02-16T13:11:04;17.50;13.70
10245;DHT22;5167;52.164;10.530;2024-02-16T13:13:30;17.40;13.50
10245;DHT22;5167;52.164;10.530;2024-02-16T13:15:57;17.40;14.20
10245;DHT22;5167;52.164;10.530;2024-02-16T13:18:24;17.40;14.70
10245;DHT22;5167;52.164;10.530;2024-02-16T13:20:49;17.50;14.90
10245;DHT22;5167;52.164;10.530;2024-02-16T13:23:15;17.40;15.20
10245;DHT22;5167;52.164;10.530;2024-02-16T13:25:40;17.40;15.10
10245;DHT22;5167;52.164;10.530;2024-02-16T13:28:06;17.40;16.10
10245;DHT22;5167;52.164;10.530;2024-02-16T13:30:31;17.30;16.80
10245;DHT22;5167;52.164;10.530;2024-02-16T13:32:57;17.40;17.20
10245;DHT22;5167;52.164;10.530;2024-02-16T13:35:23;17.40;17.40
10245;DHT22;5167;52.164;10.530;2024-02-16T13:37:49;17.40;17.90
10245;DHT22;5167;52.164;10.530;2024-02-16T13:40:14;17.30;17.40
10245;DHT22;5167;52.164;10.530;2024-02-16T13:42:43;17.40;18.20
10245;DHT22;5167;52.164;10.530;2024-02-16T13:45:09;17.40;18.80
10245;DHT22;5167;52.164;10.530;2024-02-16T13:47:37;17.30;19.40
10245;DHT22;5167;52.164;10.530;2024-02-16T13:50:07;17.30;19.30
10245;DHT22;5167;52.164;10.530;2024-02-16T13:52:32;17.30;19.60
10245;DHT22;5167;52.164;10.530;2024-02-16T13:54:59;17.40;19.60
10245;DHT22;5167;52.164;10.530;2024-02-16T13:57:24;17.40;19.80
10245;DHT22;5167;52.164;10.530;2024-02-16T13:59:50;17.30;20.60
10245;DHT22;5167;52.164;10.530;2024-02-16T14:02:15;17.40;20.90
10245;DHT22;5167;52.164;10.530;2024-02-16T14:04:41;17.50;21.40
10245;DHT22;5167;52.164;10.530;2024-02-16T14:07:07;17.30;22.30
10245;DHT22;5167;52.164;10.530;2024-02-16T14:09:32;17.30;22.70
10245;DHT22;5167;52.164;10.530;2024-02-16T14:11:58;17.30;23.10
10245;DHT22;5167;52.164;10.530;2024-02-16T14:14:27;17.30;24.20
10245;DHT22;5167;52.164;10.530;2024-02-16T14:16:53;17.30;24.60
10245;DHT22;5167;52.164;10.530;2024-02-16T14:19:19;17.30;25.50
10245;DHT22;5167;52.164;10.530;2024-02-16T14:21:44;17.30;26.00
10245;DHT22;5167;52.164;10.530;2024-02-16T14:24:12;17.30;26.30
10245;DHT22;5167;52.164;10.530;2024-02-16T14:26:38;17.40;26.80
10245;DHT22;5167;52.164;10.530;2024-02-16T14:29:05;17.50;28.50
10245;DHT22;5167;52.164;10.530;2024-02-16T14:31:30;17.20;28.70
10245;DHT22;5167;52.164;10.530;2024-02-16T14:33:56;17.20;29.80
10245;DHT22;5167;52.164;10.530;2024-02-16T14:36:21;17.20;29.80
10245;DHT22;5167;52.164;10.530;2024-02-16T14:38:47;17.20;31.00
10245;DHT22;5167;52.164;10.530;2024-02-16T14:41:13;17.20;31.40
10245;DHT22;5167;52.164;10.530;2024-02-16T14:43:39;17.20;32.50
10245;DHT22;5167;52.164;10.530;2024-02-16T14:46:05;17.10;33.10
10245;DHT22;5167;52.164;10.530;2024-02-16T14:48:30;17.20;33.60
10245;DHT22;5167;52.164;10.530;2024-02-16T14:50:56;17.00;33.60
10245;DHT22;5167;52.164;10.530;2024-02-16T14:53:23;17.10;33.90
10245;DHT22;5167;52.164;10.530;2024-02-16T14:55:49;17.00;34.10
10245;DHT22;5167;52.164;10.530;2024-02-16T14:58:16;17.00;34.20
10245;DHT22;5167;52.164;10.530;2024-02-16T15:00:41;17.00;34.40
10245;DHT22;5167;52.164;10.530;2024-02-16T15:03:08;17.00;34.30
10245;DHT22;5167;52.164;10.530;2024-02-16T15:05:33;17.00;35.50
10245;DHT22;5167;52.164;10.530;2024-02-16T15:07:59;17.00;35.30
10245;DHT22;5167;52.164;10.530;2024-02-16T15:10:24;16.90;36.20
10245;DHT22;5167;52.164;10.530;2024-02-16T15:12:50;16.80;36.70
10245;DHT22;5167;52.164;10.530;2024-02-16T15:15:15;16.80;37.30
10245;DHT22;5167;52.164;10.530;2024-02-16T15:17:41;16.70;37.40
10245;DHT22;5167;52.164;10.530;2024-02-16T15:20:07;16.60;37.10
10245;DHT22;5167;52.164;10.530;2024-02-16T15:22:33;16.60;37.50
10245;DHT22;5167;52.164;10.530;2024-02-16T15:24:59;16.60;37.40
10245;DHT22;5167;52.164;10.530;2024-02-16T15:27:24;16.60;37.60
10245;DHT22;5167;52.164;10.530;2024-02-16T15:29:50;16.60;38.30